sensor_id;sensor_type;location;lat;lon;timestamp;P1;durP1;ratioP1;P2;durP2;ratioP2
26502;SDS011;14177;51.520;6.764;2023-08-17T00:00:00;8.18;;;2.13;;
26502;SDS011;14177;51.520;6.764;2023-08-17T00:02:30;4.97;;;1.83;;
26502;SDS011;14177;51.520;6.764;2023-08-17T00:04:58;8.35;;;2.13;;
26502;SDS011;14177;51.520;6.764;2023-08-17T00:07:25;4.35;;;1.85;;
26502;SDS011;14177;51.520;6.764;2023-08-17T00:09:53;4.07;;;2.05;;
26502;SDS011;14177;51.520;6.764;2023-08-17T00:12:20;4.68;;;2.00;;
26502;SDS011;14177;51.520;6.764;2023-08-17T00:14:47;6.65;;;2.00;;
26502;SDS011;14177;51.520;6.764;2023-08-17T00:17:14;5.70;;;1.70;;
26502;SDS011;14177;51.520;6.764;2023-08-17T00:19:41;7.53;;;1.85;;
26502;SDS011;14177;51.520;6.764;2023-08-17T00:22:08;7.80;;;2.25;;
26502;SDS011;14177;51.520;6.764;2023-08-17T00:24:35;3.50;;;1.92;;
26502;SDS011;14177;51.520;6.764;2023-08-17T00:27:02;4.78;;;1.88;;
26502;SDS011;14177;51.520;6.764;2023-08-17T00:29:30;4.65;;;2.08;;
26502;SDS011;14177;51.520;6.764;2023-08-17T00:31:57;2.90;;;1.60;;
26502;SDS011;14177;51.520;6.764;2023-08-17T00:34:24;3.45;;;1.77;;
26502;SDS011;14177;51.520;6.764;2023-08-17T00:36:51;4.53;;;1.92;;
26502;SDS011;14177;51.520;6.764;2023-08-17T00:39:18;5.97;;;1.90;;
26502;SDS011;14177;51.520;6.764;2023-08-17T00:41:46;3.95;;;2.33;;
26502;SDS011;14177;51.520;6.764;2023-08-17T00:44:13;5.22;;;2.30;;
26502;SDS011;14177;51.520;6.764;2023-08-17T00:46:40;3.03;;;1.92;;
26502;SDS011;14177;51.520;6.764;2023-08-17T00:49:07;6.13;;;2.22;;
26502;SDS011;14177;51.520;6.764;2023-08-17T00:51:36;5.15;;;2.10;;
26502;SDS011;14177;51.520;6.764;2023-08-17T00:54:05;6.07;;;2.03;;
26502;SDS011;14177;51.520;6.764;2023-08-17T00:56:33;3.70;;;2.00;;
26502;SDS011;14177;51.520;6.764;2023-08-17T00:59:00;4.72;;;1.83;;
26502;SDS011;14177;51.520;6.764;2023-08-17T01:01:27;8.07;;;2.10;;
26502;SDS011;14177;51.520;6.764;2023-08-17T01:03:54;5.28;;;1.77;;
26502;SDS011;14177;51.520;6.764;2023-08-17T01:06:21;4.80;;;2.30;;
26502;SDS011;14177;51.520;6.764;2023-08-17T01:08:49;4.80;;;2.55;;
26502;SDS011;14177;51.520;6.764;2023-08-17T01:11:25;6.75;;;2.28;;
26502;SDS011;14177;51.520;6.764;2023-08-17T01:14:05;8.27;;;2.50;;
26502;SDS011;14177;51.520;6.764;2023-08-17T01:16:50;4.78;;;2.20;;
26502;SDS011;14177;51.520;6.764;2023-08-17T01:19:45;6.63;;;2.38;;
26502;SDS011;14177;51.520;6.764;2023-08-17T01:22:16;3.80;;;2.13;;
26502;SDS011;14177;51.520;6.764;2023-08-17T01:24:48;4.95;;;2.08;;
26502;SDS011;14177;51.520;6.764;2023-08-17T01:27:15;6.82;;;2.10;;
26502;SDS011;14177;51.520;6.764;2023-08-17T01:29:42;4.75;;;2.60;;
26502;SDS011;14177;51.520;6.764;2023-08-17T01:34:45;6.53;;;2.67;;
26502;SDS011;14177;51.520;6.764;2023-08-17T01:37:20;3.78;;;2.10;;
26502;SDS011;14177;51.520;6.764;2023-08-17T01:39:52;5.72;;;2.10;;
26502;SDS011;14177;51.520;6.764;2023-08-17T01:42:24;4.70;;;2.10;;
26502;SDS011;14177;51.520;6.764;2023-08-17T01:44:53;3.25;;;1.85;;
26502;SDS011;14177;51.520;6.764;2023-08-17T01:47:21;3.38;;;2.05;;
26502;SDS011;14177;51.520;6.764;2023-08-17T01:49:49;6.05;;;2.10;;
26502;SDS011;14177;51.520;6.764;2023-08-17T01:52:16;6.13;;;2.42;;
26502;SDS011;14177;51.520;6.764;2023-08-17T01:54:43;5.80;;;2.60;;
26502;SDS011;14177;51.520;6.764;2023-08-17T01:57:11;3.05;;;2.08;;
26502;SDS011;14177;51.520;6.764;2023-08-17T01:59:38;7.07;;;2.30;;
26502;SDS011;14177;51.520;6.764;2023-08-17T02:02:05;3.60;;;2.05;;
26502;SDS011;14177;51.520;6.764;2023-08-17T02:04:34;3.45;;;2.50;;
26502;SDS011;14177;51.520;6.764;2023-08-17T02:07:01;6.80;;;2.10;;
26502;SDS011;14177;51.520;6.764;2023-08-17T02:09:29;6.45;;;2.30;;
26502;SDS011;14177;51.520;6.764;2023-08-17T02:11:56;6.22;;;2.03;;
26502;SDS011;14177;51.520;6.764;2023-08-17T02:14:23;6.05;;;2.22;;
26502;SDS011;14177;51.520;6.764;2023-08-17T02:16:51;7.80;;;2.17;;
26502;SDS011;14177;51.520;6.764;2023-08-17T02:19:19;3.45;;;1.95;;
26502;SDS011;14177;51.520;6.764;2023-08-17T02:21:47;5.70;;;2.00;;
26502;SDS011;14177;51.520;6.764;2023-08-17T02:24:14;4.65;;;2.05;;
26502;SDS011;14177;51.520;6.764;2023-08-17T02:26:41;6.10;;;2.03;;
26502;SDS011;14177;51.520;6.764;2023-08-17T02:29:08;4.47;;;2.47;;
26502;SDS011;14177;51.520;6.764;2023-08-17T02:31:35;5.82;;;2.60;;
26502;SDS011;14177;51.520;6.764;2023-08-17T02:34:02;6.05;;;2.10;;
26502;SDS011;14177;51.520;6.764;2023-08-17T02:36:32;4.95;;;2.08;;
26502;SDS011;14177;51.520;6.764;2023-08-17T02:39:01;3.92;;;2.15;;
26502;SDS011;14177;51.520;6.764;2023-08-17T02:41:29;3.60;;;2.00;;
26502;SDS011;14177;51.520;6.764;2023-08-17T02:43:58;3.25;;;2.17;;
26502;SDS011;14177;51.520;6.764;2023-08-17T02:46:27;4.90;;;2.10;;
26502;SDS011;14177;51.520;6.764;2023-08-17T02:48:54;6.60;;;2.47;;
26502;SDS011;14177;51.520;6.764;2023-08-17T02:51:21;4.68;;;1.83;;
26502;SDS011;14177;51.520;6.764;2023-08-17T02:53:48;8.70;;;2.40;;
26502;SDS011;14177;51.520;6.764;2023-08-17T02:56:15;4.75;;;2.05;;
26502;SDS011;14177;51.520;6.764;2023-08-17T02:58:42;2.80;;;2.15;;
26502;SDS011;14177;51.520;6.764;2023-08-17T03:01:10;4.53;;;2.13;;
26502;SDS011;14177;51.520;6.764;2023-08-17T03:03:37;3.72;;;2.10;;
26502;SDS011;14177;51.520;6.764;2023-08-17T03:06:04;5.65;;;2.28;;
26502;SDS011;14177;51.520;6.764;2023-08-17T03:08:32;4.78;;;2.38;;
26502;SDS011;14177;51.520;6.764;2023-08-17T03:10:59;6.32;;;2.45;;
26502;SDS011;14177;51.520;6.764;2023-08-17T03:13:26;6.50;;;2.60;;
26502;SDS011;14177;51.520;6.764;2023-08-17T03:15:54;5.57;;;2.00;;
26502;SDS011;14177;51.520;6.764;2023-08-17T03:18:21;3.30;;;2.03;;
26502;SDS011;14177;51.520;6.764;2023-08-17T03:20:48;6.65;;;2.35;;
26502;SDS011;14177;51.520;6.764;2023-08-17T03:23:15;5.35;;;2.55;;
26502;SDS011;14177;51.520;6.764;2023-08-17T03:25:42;6.13;;;2.33;;
26502;SDS011;14177;51.520;6.764;2023-08-17T03:28:09;3.58;;;2.40;;
26502;SDS011;14177;51.520;6.764;2023-08-17T03:30:37;4.28;;;2.20;;
26502;SDS011;14177;51.520;6.764;2023-08-17T03:33:04;10.35;;;2.63;;
26502;SDS011;14177;51.520;6.764;2023-08-17T03:35:31;9.50;;;2.60;;
26502;SDS011;14177;51.520;6.764;2023-08-17T03:37:59;3.30;;;2.20;;
26502;SDS011;14177;51.520;6.764;2023-08-17T03:40:26;6.75;;;2.40;;
26502;SDS011;14177;51.520;6.764;2023-08-17T03:42:53;5.40;;;2.83;;
26502;SDS011;14177;51.520;6.764;2023-08-17T03:45:20;5.28;;;2.70;;
26502;SDS011;14177;51.520;6.764;2023-08-17T03:47:49;4.53;;;2.40;;
26502;SDS011;14177;51.520;6.764;2023-08-17T03:50:16;6.68;;;2.30;;
26502;SDS011;14177;51.520;6.764;2023-08-17T03:52:43;6.43;;;2.78;;
26502;SDS011;14177;51.520;6.764;2023-08-17T03:55:10;6.90;;;2.72;;
26502;SDS011;14177;51.520;6.764;2023-08-17T03:57:37;2.63;;;2.15;;
26502;SDS011;14177;51.520;6.764;2023-08-17T04:00:06;5.25;;;2.50;;
26502;SDS011;14177;51.520;6.764;2023-08-17T04:02:40;6.00;;;2.40;;
26502;SDS011;14177;51.520;6.764;2023-08-17T04:05:09;5.60;;;2.50;;
26502;SDS011;14177;51.520;6.764;2023-08-17T04:07:36;4.32;;;2.50;;
26502;SDS011;14177;51.520;6.764;2023-08-17T04:10:07;9.27;;;2.70;;
26502;SDS011;14177;51.520;6.764;2023-08-17T04:12:35;3.72;;;2.63;;
26502;SDS011;14177;51.520;6.764;2023-08-17T04:15:02;6.78;;;2.70;;
26502;SDS011;14177;51.520;6.764;2023-08-17T04:17:30;4.88;;;2.70;;
26502;SDS011;14177;51.520;6.764;2023-08-17T04:19:58;5.38;;;3.05;;
26502;SDS011;14177;51.520;6.764;2023-08-17T04:22:26;6.18;;;3.47;;
26502;SDS011;14177;51.520;6.764;2023-08-17T04:24:53;4.97;;;2.70;;
26502;SDS011;14177;51.520;6.764;2023-08-17T04:27:20;6.03;;;2.95;;
26502;SDS011;14177;51.520;6.764;2023-08-17T04:29:47;4.82;;;2.97;;
26502;SDS011;14177;51.520;6.764;2023-08-17T04:32:15;5.38;;;2.75;;
26502;SDS011;14177;51.520;6.764;2023-08-17T04:34:43;7.63;;;3.15;;
26502;SDS011;14177;51.520;6.764;2023-08-17T04:37:14;6.28;;;2.88;;
26502;SDS011;14177;51.520;6.764;2023-08-17T04:39:41;7.18;;;2.67;;
26502;SDS011;14177;51.520;6.764;2023-08-17T04:42:14;6.13;;;3.13;;
26502;SDS011;14177;51.520;6.764;2023-08-17T04:44:41;5.90;;;2.92;;
26502;SDS011;14177;51.520;6.764;2023-08-17T04:47:09;4.35;;;2.60;;
26502;SDS011;14177;51.520;6.764;2023-08-17T04:49:37;5.68;;;3.30;;
26502;SDS011;14177;51.520;6.764;2023-08-17T04:52:04;8.23;;;3.80;;
26502;SDS011;14177;51.520;6.764;2023-08-17T04:54:32;5.07;;;2.92;;
26502;SDS011;14177;51.520;6.764;2023-08-17T04:57:00;12.85;;;3.65;;
26502;SDS011;14177;51.520;6.764;2023-08-17T04:59:27;8.10;;;3.08;;
26502;SDS011;14177;51.520;6.764;2023-08-17T05:01:54;6.03;;;3.03;;
26502;SDS011;14177;51.520;6.764;2023-08-17T05:04:21;6.28;;;3.10;;
26502;SDS011;14177;51.520;6.764;2023-08-17T05:06:49;7.47;;;3.00;;
26502;SDS011;14177;51.520;6.764;2023-08-17T05:09:16;7.85;;;3.13;;
26502;SDS011;14177;51.520;6.764;2023-08-17T05:11:43;6.10;;;3.50;;
26502;SDS011;14177;51.520;6.764;2023-08-17T05:14:11;7.50;;;3.75;;
26502;SDS011;14177;51.520;6.764;2023-08-17T05:16:38;5.95;;;3.05;;
26502;SDS011;14177;51.520;6.764;2023-08-17T05:19:05;7.78;;;3.17;;
26502;SDS011;14177;51.520;6.764;2023-08-17T05:21:34;5.13;;;3.05;;
26502;SDS011;14177;51.520;6.764;2023-08-17T05:24:02;8.40;;;3.15;;
26502;SDS011;14177;51.520;6.764;2023-08-17T05:26:31;8.73;;;3.10;;
26502;SDS011;14177;51.520;6.764;2023-08-17T05:28:58;6.53;;;3.10;;
26502;SDS011;14177;51.520;6.764;2023-08-17T05:31:25;5.65;;;3.25;;
26502;SDS011;14177;51.520;6.764;2023-08-17T05:33:53;10.38;;;3.55;;
26502;SDS011;14177;51.520;6.764;2023-08-17T05:36:23;8.75;;;3.20;;
26502;SDS011;14177;51.520;6.764;2023-08-17T05:38:50;7.70;;;3.08;;
26502;SDS011;14177;51.520;6.764;2023-08-17T05:41:17;5.47;;;2.97;;
26502;SDS011;14177;51.520;6.764;2023-08-17T05:43:44;7.25;;;3.50;;
26502;SDS011;14177;51.520;6.764;2023-08-17T05:46:11;5.38;;;3.10;;
26502;SDS011;14177;51.520;6.764;2023-08-17T05:48:38;8.52;;;3.00;;
26502;SDS011;14177;51.520;6.764;2023-08-17T05:51:07;7.55;;;3.08;;
26502;SDS011;14177;51.520;6.764;2023-08-17T05:53:34;7.15;;;3.40;;
26502;SDS011;14177;51.520;6.764;2023-08-17T05:56:01;5.25;;;2.83;;
26502;SDS011;14177;51.520;6.764;2023-08-17T05:58:28;4.47;;;3.20;;
26502;SDS011;14177;51.520;6.764;2023-08-17T06:00:55;6.10;;;2.33;;
26502;SDS011;14177;51.520;6.764;2023-08-17T06:03:32;5.72;;;3.03;;
26502;SDS011;14177;51.520;6.764;2023-08-17T06:06:00;6.65;;;2.95;;
26502;SDS011;14177;51.520;6.764;2023-08-17T06:08:30;3.88;;;2.83;;
26502;SDS011;14177;51.520;6.764;2023-08-17T06:10:57;7.85;;;2.92;;
26502;SDS011;14177;51.520;6.764;2023-08-17T06:13:24;5.57;;;3.10;;
26502;SDS011;14177;51.520;6.764;2023-08-17T06:15:51;6.53;;;3.15;;
26502;SDS011;14177;51.520;6.764;2023-08-17T06:18:20;4.57;;;2.95;;
26502;SDS011;14177;51.520;6.764;2023-08-17T06:20:47;5.20;;;3.08;;
26502;SDS011;14177;51.520;6.764;2023-08-17T06:23:18;10.65;;;3.40;;
26502;SDS011;14177;51.520;6.764;2023-08-17T06:25:46;6.38;;;2.97;;
26502;SDS011;14177;51.520;6.764;2023-08-17T06:28:13;7.00;;;2.97;;
26502;SDS011;14177;51.520;6.764;2023-08-17T06:30:40;4.65;;;3.10;;
26502;SDS011;14177;51.520;6.764;2023-08-17T06:33:07;11.32;;;3.22;;
26502;SDS011;14177;51.520;6.764;2023-08-17T06:35:34;4.78;;;2.90;;
26502;SDS011;14177;51.520;6.764;2023-08-17T06:38:02;6.95;;;3.17;;
26502;SDS011;14177;51.520;6.764;2023-08-17T06:40:29;7.47;;;3.35;;
26502;SDS011;14177;51.520;6.764;2023-08-17T06:42:56;10.82;;;3.60;;
26502;SDS011;14177;51.520;6.764;2023-08-17T06:45:23;6.53;;;3.40;;
26502;SDS011;14177;51.520;6.764;2023-08-17T06:47:50;4.35;;;3.30;;
26502;SDS011;14177;51.520;6.764;2023-08-17T06:50:18;7.43;;;3.30;;
26502;SDS011;14177;51.520;6.764;2023-08-17T06:52:45;4.63;;;2.80;;
26502;SDS011;14177;51.520;6.764;2023-08-17T06:55:12;6.55;;;3.35;;
26502;SDS011;14177;51.520;6.764;2023-08-17T06:57:39;6.65;;;3.50;;
26502;SDS011;14177;51.520;6.764;2023-08-17T07:00:06;5.18;;;3.15;;
26502;SDS011;14177;51.520;6.764;2023-08-17T07:02:34;10.32;;;3.58;;
26502;SDS011;14177;51.520;6.764;2023-08-17T07:05:18;7.63;;;3.30;;
26502;SDS011;14177;51.520;6.764;2023-08-17T07:07:45;7.03;;;3.70;;
26502;SDS011;14177;51.520;6.764;2023-08-17T07:10:12;7.93;;;3.45;;
26502;SDS011;14177;51.520;6.764;2023-08-17T07:12:40;4.75;;;3.53;;
26502;SDS011;14177;51.520;6.764;2023-08-17T07:15:07;6.57;;;3.15;;
26502;SDS011;14177;51.520;6.764;2023-08-17T07:17:35;7.22;;;3.58;;
26502;SDS011;14177;51.520;6.764;2023-08-17T07:20:03;9.65;;;3.95;;
26502;SDS011;14177;51.520;6.764;2023-08-17T07:22:42;6.45;;;3.67;;
26502;SDS011;14177;51.520;6.764;2023-08-17T07:25:10;7.38;;;4.22;;
26502;SDS011;14177;51.520;6.764;2023-08-17T07:27:37;13.20;;;4.68;;
26502;SDS011;14177;51.520;6.764;2023-08-17T07:30:04;11.70;;;5.30;;
26502;SDS011;14177;51.520;6.764;2023-08-17T07:32:33;10.77;;;5.18;;
26502;SDS011;14177;51.520;6.764;2023-08-17T07:35:00;12.93;;;5.00;;
26502;SDS011;14177;51.520;6.764;2023-08-17T07:37:27;8.48;;;5.50;;
26502;SDS011;14177;51.520;6.764;2023-08-17T07:39:59;14.98;;;5.15;;
26502;SDS011;14177;51.520;6.764;2023-08-17T07:42:29;8.57;;;5.97;;
26502;SDS011;14177;51.520;6.764;2023-08-17T07:44:56;10.57;;;5.55;;
26502;SDS011;14177;51.520;6.764;2023-08-17T07:47:24;8.93;;;4.90;;
26502;SDS011;14177;51.520;6.764;2023-08-17T07:49:52;7.80;;;5.07;;
26502;SDS011;14177;51.520;6.764;2023-08-17T07:52:19;11.20;;;5.28;;
26502;SDS011;14177;51.520;6.764;2023-08-17T07:54:46;11.38;;;6.03;;
26502;SDS011;14177;51.520;6.764;2023-08-17T07:57:13;10.32;;;5.60;;
26502;SDS011;14177;51.520;6.764;2023-08-17T07:59:40;11.05;;;6.38;;
26502;SDS011;14177;51.520;6.764;2023-08-17T08:02:07;20.83;;;7.50;;
26502;SDS011;14177;51.520;6.764;2023-08-17T08:04:34;15.82;;;6.95;;
26502;SDS011;14177;51.520;6.764;2023-08-17T08:07:02;11.88;;;6.22;;
26502;SDS011;14177;51.520;6.764;2023-08-17T08:09:29;9.40;;;5.38;;
26502;SDS011;14177;51.520;6.764;2023-08-17T08:11:56;12.23;;;5.50;;
26502;SDS011;14177;51.520;6.764;2023-08-17T08:14:23;13.10;;;6.05;;
26502;SDS011;14177;51.520;6.764;2023-08-17T08:16:50;13.63;;;5.75;;
26502;SDS011;14177;51.520;6.764;2023-08-17T08:19:17;15.93;;;6.28;;
26502;SDS011;14177;51.520;6.764;2023-08-17T08:21:44;12.00;;;5.45;;
26502;SDS011;14177;51.520;6.764;2023-08-17T08:24:11;12.65;;;6.22;;
26502;SDS011;14177;51.520;6.764;2023-08-17T08:26:56;19.35;;;6.60;;
26502;SDS011;14177;51.520;6.764;2023-08-17T08:29:23;12.52;;;6.18;;
26502;SDS011;14177;51.520;6.764;2023-08-17T08:31:50;13.63;;;6.70;;
26502;SDS011;14177;51.520;6.764;2023-08-17T08:34:17;15.05;;;6.50;;
26502;SDS011;14177;51.520;6.764;2023-08-17T08:36:44;19.10;;;7.22;;
26502;SDS011;14177;51.520;6.764;2023-08-17T08:39:11;11.60;;;6.50;;
26502;SDS011;14177;51.520;6.764;2023-08-17T08:41:39;15.70;;;7.13;;
26502;SDS011;14177;51.520;6.764;2023-08-17T08:44:06;11.27;;;6.80;;
26502;SDS011;14177;51.520;6.764;2023-08-17T08:46:33;14.00;;;7.35;;
26502;SDS011;14177;51.520;6.764;2023-08-17T08:49:07;12.45;;;7.82;;
26502;SDS011;14177;51.520;6.764;2023-08-17T08:51:40;16.10;;;8.40;;
26502;SDS011;14177;51.520;6.764;2023-08-17T08:54:12;17.65;;;8.95;;
26502;SDS011;14177;51.520;6.764;2023-08-17T08:56:44;16.20;;;9.98;;
26502;SDS011;14177;51.520;6.764;2023-08-17T08:59:20;17.05;;;11.60;;
26502;SDS011;14177;51.520;6.764;2023-08-17T09:01:49;22.52;;;11.48;;
26502;SDS011;14177;51.520;6.764;2023-08-17T09:04:17;23.50;;;11.63;;
26502;SDS011;14177;51.520;6.764;2023-08-17T09:06:44;22.15;;;10.73;;
26502;SDS011;14177;51.520;6.764;2023-08-17T09:09:13;17.17;;;10.18;;
26502;SDS011;14177;51.520;6.764;2023-08-17T09:11:43;15.25;;;9.05;;
26502;SDS011;14177;51.520;6.764;2023-08-17T09:14:10;19.75;;;11.13;;
26502;SDS011;14177;51.520;6.764;2023-08-17T09:16:38;20.65;;;11.30;;
26502;SDS011;14177;51.520;6.764;2023-08-17T09:19:05;21.33;;;10.82;;
26502;SDS011;14177;51.520;6.764;2023-08-17T09:21:33;19.42;;;9.45;;
26502;SDS011;14177;51.520;6.764;2023-08-17T09:24:01;21.58;;;10.23;;
26502;SDS011;14177;51.520;6.764;2023-08-17T09:26:31;22.55;;;11.07;;
26502;SDS011;14177;51.520;6.764;2023-08-17T09:28:59;22.77;;;10.23;;
26502;SDS011;14177;51.520;6.764;2023-08-17T09:31:30;22.35;;;9.80;;
26502;SDS011;14177;51.520;6.764;2023-08-17T09:33:58;12.32;;;9.10;;
26502;SDS011;14177;51.520;6.764;2023-08-17T09:36:32;20.95;;;9.85;;
26502;SDS011;14177;51.520;6.764;2023-08-17T09:39:02;18.50;;;8.90;;
26502;SDS011;14177;51.520;6.764;2023-08-17T09:41:29;16.80;;;9.43;;
26502;SDS011;14177;51.520;6.764;2023-08-17T09:43:56;19.27;;;10.40;;
26502;SDS011;14177;51.520;6.764;2023-08-17T09:46:24;16.65;;;10.73;;
26502;SDS011;14177;51.520;6.764;2023-08-17T09:48:53;17.67;;;11.18;;
26502;SDS011;14177;51.520;6.764;2023-08-17T09:51:20;16.40;;;10.50;;
26502;SDS011;14177;51.520;6.764;2023-08-17T09:53:51;17.63;;;11.38;;
26502;SDS011;14177;51.520;6.764;2023-08-17T09:56:26;18.60;;;10.32;;
26502;SDS011;14177;51.520;6.764;2023-08-17T09:58:54;17.92;;;9.90;;
26502;SDS011;14177;51.520;6.764;2023-08-17T10:01:22;17.45;;;10.77;;
26502;SDS011;14177;51.520;6.764;2023-08-17T10:03:51;17.95;;;10.70;;
26502;SDS011;14177;51.520;6.764;2023-08-17T10:06:22;18.75;;;11.45;;
26502;SDS011;14177;51.520;6.764;2023-08-17T10:08:54;16.63;;;10.05;;
26502;SDS011;14177;51.520;6.764;2023-08-17T10:11:24;17.63;;;10.15;;
26502;SDS011;14177;51.520;6.764;2023-08-17T10:14:02;13.88;;;8.90;;
26502;SDS011;14177;51.520;6.764;2023-08-17T10:16:41;17.38;;;9.57;;
26502;SDS011;14177;51.520;6.764;2023-08-17T10:19:13;16.17;;;9.68;;
26502;SDS011;14177;51.520;6.764;2023-08-17T10:22:09;15.25;;;9.85;;
26502;SDS011;14177;51.520;6.764;2023-08-17T10:25:09;13.90;;;9.77;;
26502;SDS011;14177;51.520;6.764;2023-08-17T10:27:38;18.08;;;11.48;;
26502;SDS011;14177;51.520;6.764;2023-08-17T10:30:10;16.58;;;11.10;;
26502;SDS011;14177;51.520;6.764;2023-08-17T10:32:38;22.17;;;11.35;;
26502;SDS011;14177;51.520;6.764;2023-08-17T10:35:11;16.63;;;10.50;;
26502;SDS011;14177;51.520;6.764;2023-08-17T10:37:40;16.90;;;11.15;;
26502;SDS011;14177;51.520;6.764;2023-08-17T10:40:08;16.40;;;10.80;;
26502;SDS011;14177;51.520;6.764;2023-08-17T10:42:46;17.15;;;10.23;;
26502;SDS011;14177;51.520;6.764;2023-08-17T10:45:28;15.45;;;10.63;;
26502;SDS011;14177;51.520;6.764;2023-08-17T10:50:37;20.08;;;10.35;;
26502;SDS011;14177;51.520;6.764;2023-08-17T10:53:09;16.10;;;10.45;;
26502;SDS011;14177;51.520;6.764;2023-08-17T10:55:45;17.05;;;10.63;;
26502;SDS011;14177;51.520;6.764;2023-08-17T10:58:18;18.58;;;10.65;;
26502;SDS011;14177;51.520;6.764;2023-08-17T11:00:45;17.42;;;10.18;;
26502;SDS011;14177;51.520;6.764;2023-08-17T11:03:19;22.92;;;12.25;;
26502;SDS011;14177;51.520;6.764;2023-08-17T11:05:55;20.15;;;11.75;;
26502;SDS011;14177;51.520;6.764;2023-08-17T11:11:12;23.10;;;12.90;;
26502;SDS011;14177;51.520;6.764;2023-08-17T11:13:41;19.85;;;13.88;;
26502;SDS011;14177;51.520;6.764;2023-08-17T11:16:11;17.30;;;11.15;;
26502;SDS011;14177;51.520;6.764;2023-08-17T11:18:44;17.60;;;11.90;;
26502;SDS011;14177;51.520;6.764;2023-08-17T11:21:13;20.98;;;11.95;;
26502;SDS011;14177;51.520;6.764;2023-08-17T11:23:44;17.13;;;10.85;;
26502;SDS011;14177;51.520;6.764;2023-08-17T11:26:11;21.30;;;11.40;;
26502;SDS011;14177;51.520;6.764;2023-08-17T11:28:43;18.27;;;10.38;;
26502;SDS011;14177;51.520;6.764;2023-08-17T11:31:12;15.65;;;10.85;;
26502;SDS011;14177;51.520;6.764;2023-08-17T11:33:42;19.38;;;11.15;;
26502;SDS011;14177;51.520;6.764;2023-08-17T11:36:11;19.25;;;10.98;;
26502;SDS011;14177;51.520;6.764;2023-08-17T11:38:39;23.73;;;15.43;;
26502;SDS011;14177;51.520;6.764;2023-08-17T11:41:09;24.98;;;16.77;;
26502;SDS011;14177;51.520;6.764;2023-08-17T11:43:44;26.58;;;16.45;;
26502;SDS011;14177;51.520;6.764;2023-08-17T11:46:12;24.15;;;15.07;;
26502;SDS011;14177;51.520;6.764;2023-08-17T11:48:39;19.10;;;12.02;;
26502;SDS011;14177;51.520;6.764;2023-08-17T11:51:07;24.05;;;13.93;;
26502;SDS011;14177;51.520;6.764;2023-08-17T11:53:35;21.85;;;14.95;;
26502;SDS011;14177;51.520;6.764;2023-08-17T11:56:05;22.15;;;14.60;;
26502;SDS011;14177;51.520;6.764;2023-08-17T11:58:36;20.33;;;13.25;;
26502;SDS011;14177;51.520;6.764;2023-08-17T12:01:11;22.85;;;14.68;;
26502;SDS011;14177;51.520;6.764;2023-08-17T12:03:42;26.15;;;16.70;;
26502;SDS011;14177;51.520;6.764;2023-08-17T12:06:10;25.02;;;15.48;;
26502;SDS011;14177;51.520;6.764;2023-08-17T12:08:41;22.42;;;15.65;;
26502;SDS011;14177;51.520;6.764;2023-08-17T12:11:15;22.10;;;14.63;;
26502;SDS011;14177;51.520;6.764;2023-08-17T12:13:50;17.02;;;13.30;;
26502;SDS011;14177;51.520;6.764;2023-08-17T12:16:22;20.52;;;13.85;;
26502;SDS011;14177;51.520;6.764;2023-08-17T12:18:50;28.77;;;14.45;;
26502;SDS011;14177;51.520;6.764;2023-08-17T12:21:19;20.35;;;14.70;;
26502;SDS011;14177;51.520;6.764;2023-08-17T12:23:48;20.95;;;14.55;;
26502;SDS011;14177;51.520;6.764;2023-08-17T12:26:19;18.08;;;12.93;;
26502;SDS011;14177;51.520;6.764;2023-08-17T12:28:49;20.65;;;13.95;;
26502;SDS011;14177;51.520;6.764;2023-08-17T12:31:20;18.50;;;13.35;;
26502;SDS011;14177;51.520;6.764;2023-08-17T12:33:51;18.15;;;12.90;;
26502;SDS011;14177;51.520;6.764;2023-08-17T12:36:19;22.13;;;13.27;;
26502;SDS011;14177;51.520;6.764;2023-08-17T12:38:48;17.52;;;12.15;;
26502;SDS011;14177;51.520;6.764;2023-08-17T12:41:15;18.42;;;13.18;;
26502;SDS011;14177;51.520;6.764;2023-08-17T12:43:44;22.02;;;13.75;;
26502;SDS011;14177;51.520;6.764;2023-08-17T12:46:11;22.17;;;13.75;;
26502;SDS011;14177;51.520;6.764;2023-08-17T12:48:38;22.13;;;13.05;;
26502;SDS011;14177;51.520;6.764;2023-08-17T12:51:05;24.27;;;14.65;;
26502;SDS011;14177;51.520;6.764;2023-08-17T12:53:32;20.60;;;14.00;;
26502;SDS011;14177;51.520;6.764;2023-08-17T12:56:00;23.42;;;13.38;;
26502;SDS011;14177;51.520;6.764;2023-08-17T12:58:28;17.98;;;12.80;;
26502;SDS011;14177;51.520;6.764;2023-08-17T13:00:55;19.50;;;12.18;;
26502;SDS011;14177;51.520;6.764;2023-08-17T13:03:22;22.60;;;12.60;;
26502;SDS011;14177;51.520;6.764;2023-08-17T13:05:49;16.08;;;11.25;;
26502;SDS011;14177;51.520;6.764;2023-08-17T13:08:16;18.17;;;12.00;;
26502;SDS011;14177;51.520;6.764;2023-08-17T13:10:43;17.63;;;12.43;;
26502;SDS011;14177;51.520;6.764;2023-08-17T13:13:10;19.77;;;11.50;;
26502;SDS011;14177;51.520;6.764;2023-08-17T13:15:37;20.13;;;12.45;;
26502;SDS011;14177;51.520;6.764;2023-08-17T13:18:04;18.08;;;12.15;;
26502;SDS011;14177;51.520;6.764;2023-08-17T13:20:32;18.75;;;11.10;;
26502;SDS011;14177;51.520;6.764;2023-08-17T13:22:59;18.73;;;11.88;;
26502;SDS011;14177;51.520;6.764;2023-08-17T13:25:26;19.88;;;12.02;;
26502;SDS011;14177;51.520;6.764;2023-08-17T13:27:53;19.65;;;12.70;;
26502;SDS011;14177;51.520;6.764;2023-08-17T13:30:20;23.88;;;15.57;;
26502;SDS011;14177;51.520;6.764;2023-08-17T13:32:47;26.00;;;16.30;;
26502;SDS011;14177;51.520;6.764;2023-08-17T13:35:14;25.20;;;15.68;;
26502;SDS011;14177;51.520;6.764;2023-08-17T13:37:41;23.33;;;15.65;;
26502;SDS011;14177;51.520;6.764;2023-08-17T13:40:08;24.85;;;14.73;;
26502;SDS011;14177;51.520;6.764;2023-08-17T13:42:36;23.30;;;14.85;;
26502;SDS011;14177;51.520;6.764;2023-08-17T13:45:03;20.92;;;14.65;;
26502;SDS011;14177;51.520;6.764;2023-08-17T13:47:31;24.38;;;14.95;;
26502;SDS011;14177;51.520;6.764;2023-08-17T13:49:58;22.77;;;14.90;;
26502;SDS011;14177;51.520;6.764;2023-08-17T13:52:25;23.42;;;15.60;;
26502;SDS011;14177;51.520;6.764;2023-08-17T13:54:52;27.60;;;16.48;;
26502;SDS011;14177;51.520;6.764;2023-08-17T13:57:20;25.67;;;15.38;;
26502;SDS011;14177;51.520;6.764;2023-08-17T13:59:47;22.75;;;14.65;;
26502;SDS011;14177;51.520;6.764;2023-08-17T14:02:14;23.10;;;14.55;;
26502;SDS011;14177;51.520;6.764;2023-08-17T14:04:41;20.17;;;12.90;;
26502;SDS011;14177;51.520;6.764;2023-08-17T14:07:08;16.20;;;12.20;;
26502;SDS011;14177;51.520;6.764;2023-08-17T14:09:35;24.35;;;13.30;;
26502;SDS011;14177;51.520;6.764;2023-08-17T14:12:02;18.27;;;11.90;;
26502;SDS011;14177;51.520;6.764;2023-08-17T14:14:31;24.88;;;14.20;;
26502;SDS011;14177;51.520;6.764;2023-08-17T14:16:59;22.67;;;13.85;;
26502;SDS011;14177;51.520;6.764;2023-08-17T14:19:27;25.40;;;13.52;;
26502;SDS011;14177;51.520;6.764;2023-08-17T14:21:54;21.27;;;11.55;;
26502;SDS011;14177;51.520;6.764;2023-08-17T14:24:21;19.67;;;11.55;;
26502;SDS011;14177;51.520;6.764;2023-08-17T14:26:48;16.05;;;10.45;;
26502;SDS011;14177;51.520;6.764;2023-08-17T14:29:15;17.70;;;9.95;;
26502;SDS011;14177;51.520;6.764;2023-08-17T14:31:42;15.55;;;9.55;;
26502;SDS011;14177;51.520;6.764;2023-08-17T14:34:09;15.80;;;9.95;;
26502;SDS011;14177;51.520;6.764;2023-08-17T14:36:36;14.70;;;9.30;;
26502;SDS011;14177;51.520;6.764;2023-08-17T14:39:03;14.73;;;9.38;;
26502;SDS011;14177;51.520;6.764;2023-08-17T14:41:30;15.02;;;9.77;;
26502;SDS011;14177;51.520;6.764;2023-08-17T14:43:59;17.25;;;10.65;;
26502;SDS011;14177;51.520;6.764;2023-08-17T14:46:29;21.23;;;11.75;;
26502;SDS011;14177;51.520;6.764;2023-08-17T14:48:57;19.25;;;12.40;;
26502;SDS011;14177;51.520;6.764;2023-08-17T14:51:24;24.05;;;12.40;;